createdAt,value
2023-01-20T00:02:23.375Z,20.45
2023-01-20T00:05:29.440Z,18.70
2023-01-20T00:08:36.656Z,19.82
2023-01-20T00:11:42.496Z,18.77
2023-01-20T00:14:47.954Z,18.65
2023-01-20T00:17:54.278Z,19.45
2023-01-20T00:21:00.994Z,20.55
2023-01-20T00:24:07.424Z,19.82
2023-01-20T00:27:14.427Z,19.95
2023-01-20T00:30:22.218Z,19.98
2023-01-20T00:33:28.477Z,18.62
2023-01-20T00:36:34.724Z,18.00
2023-01-20T00:39:39.990Z,18.50
2023-01-20T00:42:46.269Z,18.60
2023-01-20T00:45:53.547Z,17.37
2023-01-20T00:48:59.482Z,18.73
2023-01-20T00:52:05.827Z,19.62
2023-01-20T00:55:11.980Z,18.37
2023-01-20T00:58:19.905Z,18.73
2023-01-20T01:01:25.462Z,18.52
2023-01-20T01:04:33.802Z,18.65
2023-01-20T01:07:40.893Z,19.25
2023-01-20T01:10:47.218Z,20.25
2023-01-20T01:13:52.737Z,20.80
2023-01-20T01:16:59.560Z,19.00
2023-01-20T01:20:07.280Z,18.87
2023-01-20T01:23:12.226Z,19.85
2023-01-20T01:26:17.248Z,19.48
2023-01-20T01:29:22.153Z,19.70
2023-01-20T01:32:28.496Z,18.87
2023-01-20T01:35:34.379Z,20.32
2023-01-20T01:38:39.363Z,21.02
2023-01-20T01:41:44.654Z,19.82
2023-01-20T01:44:51.733Z,19.65
2023-01-20T01:48:10.862Z,21.00
2023-01-20T01:51:29.275Z,18.75
2023-01-20T01:54:39.198Z,19.92
2023-01-20T01:57:45.594Z,20.10
2023-01-20T02:00:51.057Z,21.65
2023-01-20T02:04:01.368Z,20.55
2023-01-20T02:07:18.821Z,21.00
2023-01-20T02:10:24.888Z,22.17
2023-01-20T02:13:29.770Z,19.85
2023-01-20T02:16:51.802Z,20.12
2023-01-20T02:20:18.452Z,19.45
2023-01-20T02:24:06.567Z,21.15
2023-01-20T02:27:35.503Z,20.70
2023-01-20T02:31:06.909Z,20.95
2023-01-20T02:34:24.839Z,21.33
2023-01-20T02:37:29.403Z,21.12
2023-01-20T02:40:45.304Z,22.13
2023-01-20T02:44:13.200Z,22.22
2023-01-20T02:47:37.849Z,22.77
2023-01-20T02:50:54.169Z,22.10
2023-01-20T02:54:06.378Z,22.70
2023-01-20T02:57:11.541Z,22.67
2023-01-20T03:00:33.376Z,23.18
2023-01-20T03:03:47.861Z,21.42
2023-01-20T03:06:56.785Z,21.97
2023-01-20T03:10:05.479Z,23.95
2023-01-20T03:13:38.132Z,23.55
2023-01-20T03:16:43.770Z,22.65
2023-01-20T03:19:49.839Z,26.10
2023-01-20T03:22:49.008Z,24.05
2023-01-20T03:25:49.311Z,24.12
2023-01-20T03:28:55.493Z,23.57
2023-01-20T03:32:09.462Z,23.65
2023-01-20T03:35:14.506Z,23.57
2023-01-20T03:38:19.727Z,25.30
2023-01-20T03:42:05.284Z,25.02
2023-01-20T03:45:25.869Z,25.25
2023-01-20T03:48:45.832Z,24.02
2023-01-20T03:52:04.837Z,24.05
2023-01-20T03:55:26.894Z,24.43
2023-01-20T03:58:36.544Z,23.83
2023-01-20T04:01:52.174Z,24.57
2023-01-20T04:05:05.582Z,24.30
2023-01-20T04:08:05.742Z,24.43
2023-01-20T04:11:10.665Z,25.55
2023-01-20T04:14:16.959Z,24.63
2023-01-20T04:17:22.273Z,23.67
2023-01-20T04:20:29.277Z,24.12
2023-01-20T04:23:46.322Z,23.80
2023-01-20T04:26:51.998Z,22.80
2023-01-20T04:29:56.447Z,24.92
2023-01-20T04:33:01.549Z,23.47
2023-01-20T04:36:07.683Z,23.40
2023-01-20T04:39:13.231Z,23.20
2023-01-20T04:42:18.975Z,23.22
2023-01-20T04:45:29.945Z,25.08
2023-01-20T04:48:35.333Z,24.65
2023-01-20T04:51:40.910Z,25.45
2023-01-20T04:54:47.340Z,24.80
2023-01-20T04:57:53.520Z,23.18
2023-01-20T05:01:00.078Z,23.95
2023-01-20T05:04:06.994Z,24.92
2023-01-20T05:07:12.783Z,25.20
2023-01-20T05:10:22.390Z,24.67
2023-01-20T05:13:28.456Z,25.75
2023-01-20T05:16:35.859Z,25.52
2023-01-20T05:19:41.108Z,23.83
2023-01-20T05:22:47.420Z,26.95
2023-01-20T05:25:54.743Z,26.70
2023-01-20T05:28:59.581Z,26.07
2023-01-20T05:32:05.573Z,25.97
2023-01-20T05:35:10.801Z,25.50
2023-01-20T05:38:16.128Z,27.20
2023-01-20T05:41:23.503Z,25.88
2023-01-20T05:44:31.714Z,27.32
2023-01-20T05:47:38.976Z,25.88
2023-01-20T05:50:45.530Z,27.30
2023-01-20T05:53:51.762Z,26.35
2023-01-20T05:56:59.657Z,28.52
2023-01-20T06:00:08.579Z,26.23
2023-01-20T06:03:13.849Z,27.67
2023-01-20T06:06:22.487Z,26.50
2023-01-20T06:09:30.590Z,26.87
2023-01-20T06:12:45.084Z,25.10
2023-01-20T06:15:51.230Z,26.60
2023-01-20T06:18:57.167Z,25.77
2023-01-20T06:22:03.064Z,25.48
2023-01-20T06:25:11.542Z,25.62
2023-01-20T06:28:17.640Z,31.40
2023-01-20T06:31:26.026Z,28.73
2023-01-20T06:34:31.056Z,27.25
2023-01-20T06:37:36.691Z,26.27
2023-01-20T06:40:42.397Z,22.40
2023-01-20T06:43:49.696Z,24.00
2023-01-20T06:46:58.600Z,22.00
2023-01-20T06:50:04.059Z,22.95
2023-01-20T06:53:09.163Z,23.52
2023-01-20T06:56:15.808Z,23.32
2023-01-20T06:59:21.812Z,24.15
2023-01-20T07:02:31.660Z,22.73
2023-01-20T07:05:38.426Z,23.20
2023-01-20T07:08:43.907Z,22.22
2023-01-20T07:11:50.564Z,22.85
2023-01-20T07:14:56.452Z,21.93
2023-01-20T07:18:03.789Z,22.37
2023-01-20T07:21:11.639Z,23.90
2023-01-20T07:24:19.629Z,20.90
2023-01-20T07:27:26.369Z,22.95
2023-01-20T07:30:33.408Z,22.90
2023-01-20T07:33:42.635Z,21.35
2023-01-20T07:36:48.233Z,22.17
2023-01-20T07:39:55.227Z,23.35
2023-01-20T07:43:04.391Z,21.95
2023-01-20T07:46:30.258Z,21.30
2023-01-20T07:49:38.375Z,19.98
2023-01-20T07:52:44.705Z,21.20
2023-01-20T07:55:50.220Z,21.45
2023-01-20T07:58:57.346Z,21.45
2023-01-20T08:02:03.901Z,20.27
2023-01-20T08:05:09.585Z,21.27
2023-01-20T08:08:15.801Z,21.95
2023-01-20T08:11:24.163Z,20.00
2023-01-20T08:14:29.758Z,21.70
2023-01-20T08:17:38.160Z,23.55
2023-01-20T08:20:46.771Z,21.65
2023-01-20T08:23:53.642Z,19.67
2023-01-20T08:26:58.961Z,21.12
2023-01-20T08:30:08.058Z,19.67
2023-01-20T08:33:13.814Z,20.77
2023-01-20T08:36:27.575Z,19.90
2023-01-20T08:39:33.122Z,20.77
2023-01-20T08:42:44.273Z,20.90
2023-01-20T08:45:50.496Z,20.17
2023-01-20T08:48:56.853Z,21.93
2023-01-20T08:52:04.884Z,21.48
2023-01-20T08:55:13.730Z,21.30
2023-01-20T08:58:19.621Z,20.27
2023-01-20T09:01:34.544Z,20.30
2023-01-20T09:04:41.474Z,19.60
2023-01-20T09:07:47.814Z,21.12
2023-01-20T09:10:54.686Z,19.45
2023-01-20T09:14:04.039Z,21.07
2023-01-20T09:17:09.772Z,20.08
2023-01-20T09:20:17.105Z,20.32
2023-01-20T09:23:23.399Z,18.62
2023-01-20T09:26:35.766Z,21.90
2023-01-20T09:29:38.203Z,21.07
2023-01-20T09:32:43.532Z,20.20
2023-01-20T09:35:48.321Z,20.37
2023-01-20T09:39:12.471Z,20.75
2023-01-20T09:42:56.090Z,20.88
2023-01-20T09:46:20.223Z,21.12
2023-01-20T09:49:59.570Z,20.05
2023-01-20T09:53:13.335Z,20.02
2023-01-20T09:56:31.644Z,20.82
2023-01-20T09:59:44.115Z,20.05
2023-01-20T10:02:50.846Z,20.62
2023-01-20T10:05:57.460Z,18.75
2023-01-20T10:09:13.198Z,18.45
2023-01-20T10:12:47.001Z,19.12
2023-01-20T10:15:53.772Z,19.10
2023-01-20T10:19:15.345Z,19.20
2023-01-20T10:22:38.961Z,18.77
2023-01-20T10:25:45.264Z,19.03
2023-01-20T10:28:54.291Z,18.10
2023-01-20T10:32:10.146Z,18.57
2023-01-20T10:35:21.034Z,19.60
2023-01-20T10:38:36.300Z,19.70
2023-01-20T10:42:03.302Z,18.57
2023-01-20T10:45:09.914Z,19.42
2023-01-20T10:48:23.809Z,19.55
2023-01-20T10:51:56.457Z,20.25
2023-01-20T10:55:17.380Z,19.42
2023-01-20T10:58:46.523Z,19.27
2023-01-20T11:01:59.397Z,18.00
2023-01-20T11:05:04.101Z,18.35
2023-01-20T11:08:09.907Z,18.65
2023-01-20T11:11:26.576Z,18.52
2023-01-20T11:14:34.508Z,18.67
2023-01-20T11:17:39.806Z,19.48
2023-01-20T11:20:44.916Z,20.00
2023-01-20T11:24:06.088Z,18.50
2023-01-20T11:27:28.279Z,18.95
2023-01-20T11:30:44.020Z,18.07
2023-01-20T11:33:49.764Z,18.05
2023-01-20T11:36:55.474Z,17.90
2023-01-20T11:40:13.983Z,19.05
2023-01-20T11:43:19.967Z,17.27
2023-01-20T11:46:34.347Z,16.42
2023-01-20T11:49:40.332Z,18.07
2023-01-20T11:52:56.554Z,17.40
2023-01-20T11:56:09.725Z,17.90
2023-01-20T11:59:19.083Z,17.48
2023-01-20T12:02:30.569Z,16.97
2023-01-20T12:05:46.562Z,16.82
2023-01-20T12:09:13.419Z,16.20
2023-01-20T12:12:39.843Z,17.85
2023-01-20T12:15:52.785Z,19.20
2023-01-20T12:19:07.828Z,17.32
2023-01-20T12:22:14.621Z,18.27
2023-01-20T12:25:36.391Z,18.07
2023-01-20T12:29:05.923Z,18.02
2023-01-20T12:32:11.924Z,17.12
2023-01-20T12:35:16.935Z,17.10
2023-01-20T12:38:23.066Z,17.87
2023-01-20T12:41:56.911Z,17.48
2023-01-20T12:45:35.222Z,18.17
2023-01-20T12:48:59.373Z,17.27
2023-01-20T12:52:24.956Z,19.55
2023-01-20T12:55:52.666Z,19.77
2023-01-20T12:59:05.488Z,21.17
2023-01-20T13:02:50.143Z,19.77
2023-01-20T13:06:21.083Z,18.65
2023-01-20T13:10:07.175Z,18.15
2023-01-20T13:13:51.475Z,18.45
2023-01-20T13:17:07.279Z,19.70
2023-01-20T13:20:14.543Z,18.73
2023-01-20T13:23:24.449Z,21.00
2023-01-20T13:26:29.289Z,20.43
2023-01-20T13:29:58.598Z,19.62
2023-01-20T13:33:08.532Z,21.50
2023-01-20T13:36:13.100Z,21.65
2023-01-20T13:39:57.042Z,22.42
2023-01-20T13:43:03.928Z,25.75
2023-01-20T13:46:36.542Z,28.70
2023-01-20T13:50:01.713Z,25.15
2023-01-20T13:53:27.367Z,22.45
2023-01-20T13:56:47.651Z,21.20
2023-01-20T13:59:54.479Z,22.77
2023-01-20T14:03:03.914Z,21.33
2023-01-20T14:06:20.696Z,20.80
2023-01-20T14:09:27.741Z,23.32
2023-01-20T14:12:33.166Z,22.40
2023-01-20T14:15:50.214Z,21.23
2023-01-20T14:18:57.853Z,22.67
2023-01-20T14:22:10.308Z,20.68
2023-01-20T14:25:18.164Z,22.00
2023-01-20T14:28:37.242Z,22.48
2023-01-20T14:31:50.912Z,21.48
2023-01-20T14:34:56.659Z,24.00
2023-01-20T14:38:05.628Z,23.75
2023-01-20T14:41:11.961Z,23.65
2023-01-20T14:44:17.684Z,36.23
2023-01-20T14:47:24.859Z,25.65
2023-01-20T14:50:32.358Z,25.72
2023-01-20T14:53:38.120Z,24.90
2023-01-20T14:56:44.286Z,22.87
2023-01-20T14:59:52.027Z,25.48
2023-01-20T15:03:11.056Z,25.10
2023-01-20T15:06:15.396Z,25.65
2023-01-20T15:09:21.442Z,26.07
2023-01-20T15:13:06.760Z,23.65
2023-01-20T15:16:29.399Z,24.52
2023-01-20T15:19:45.677Z,24.20
2023-01-20T15:22:56.066Z,26.15
2023-01-20T15:26:03.456Z,25.27
2023-01-20T15:29:09.721Z,26.27
2023-01-20T15:32:17.879Z,28.05
2023-01-20T15:35:32.698Z,25.10
2023-01-20T15:38:37.590Z,28.85
2023-01-20T15:41:44.039Z,25.68
2023-01-20T15:44:52.381Z,25.65
2023-01-20T15:48:00.954Z,24.92
2023-01-20T15:51:06.449Z,28.57
2023-01-20T15:54:14.269Z,25.17
2023-01-20T15:57:27.553Z,26.42
2023-01-20T16:00:35.565Z,25.27
2023-01-20T16:03:42.639Z,27.55
2023-01-20T16:06:48.656Z,33.53
2023-01-20T16:09:55.327Z,27.45
2023-01-20T16:12:56.971Z,27.32
2023-01-20T16:16:03.188Z,26.75
2023-01-20T16:19:08.372Z,27.25
2023-01-20T16:22:15.302Z,28.40
2023-01-20T16:25:22.208Z,27.65
2023-01-20T16:28:38.561Z,28.45
2023-01-20T16:31:44.896Z,26.15
2023-01-20T16:34:52.379Z,27.05
2023-01-20T16:38:02.176Z,26.75
2023-01-20T16:41:09.711Z,26.10
2023-01-20T16:44:16.169Z,27.87
2023-01-20T16:47:21.397Z,28.25
2023-01-20T16:50:28.775Z,28.05
2023-01-20T16:53:36.077Z,28.38
2023-01-20T16:56:43.515Z,27.27
2023-01-20T16:59:49.744Z,27.35
2023-01-20T17:02:57.497Z,28.60
2023-01-20T17:06:04.280Z,30.75
2023-01-20T17:09:13.549Z,29.02
2023-01-20T17:12:20.564Z,28.80
2023-01-20T17:15:28.465Z,26.57
2023-01-20T17:18:34.329Z,27.32
2023-01-20T17:21:42.852Z,29.02
2023-01-20T17:24:48.580Z,28.40
2023-01-20T17:27:56.329Z,26.23
2023-01-20T17:31:04.143Z,25.52
2023-01-20T17:34:10.911Z,25.80
2023-01-20T17:37:17.064Z,24.85
2023-01-20T17:40:25.064Z,24.55
2023-01-20T17:43:32.247Z,24.75
2023-01-20T17:46:43.427Z,25.23
2023-01-20T17:49:49.225Z,24.25
2023-01-20T17:52:55.331Z,24.32
2023-01-20T17:56:12.256Z,23.45
2023-01-20T17:59:11.995Z,22.32
2023-01-20T18:02:17.705Z,22.02
2023-01-20T18:05:24.554Z,34.20
2023-01-20T18:08:30.135Z,21.45
2023-01-20T18:11:37.089Z,21.73
2023-01-20T18:14:45.140Z,21.80
2023-01-20T18:17:53.590Z,19.45
2023-01-20T18:20:59.862Z,21.60
2023-01-20T18:24:06.529Z,21.77
2023-01-20T18:27:13.215Z,20.27
2023-01-20T18:30:23.896Z,19.45
2023-01-20T18:33:29.772Z,20.23
2023-01-20T18:36:39.061Z,20.08
2023-01-20T18:39:46.081Z,19.85
2023-01-20T18:42:52.427Z,19.62
2023-01-20T18:46:01.026Z,19.20
2023-01-20T18:49:08.532Z,18.80
2023-01-20T18:52:14.816Z,19.55
2023-01-20T18:55:22.999Z,18.65
2023-01-20T18:58:28.364Z,17.12
2023-01-20T19:01:47.615Z,18.82
2023-01-20T19:04:53.480Z,19.50
2023-01-20T19:08:08.857Z,19.15
2023-01-20T19:11:19.749Z,22.20
2023-01-20T19:14:27.897Z,20.27
2023-01-20T19:17:34.608Z,20.77
2023-01-20T19:20:40.313Z,19.65
2023-01-20T19:23:47.147Z,18.55
2023-01-20T19:26:52.871Z,17.77
2023-01-20T19:30:00.798Z,18.90
2023-01-20T19:33:07.426Z,18.70
2023-01-20T19:36:16.418Z,20.12
2023-01-20T19:39:22.713Z,18.57
2023-01-20T19:42:30.745Z,18.20
2023-01-20T19:45:45.745Z,17.73
2023-01-20T19:48:47.905Z,20.27
2023-01-20T19:51:55.228Z,18.80
2023-01-20T19:55:02.741Z,20.43
2023-01-20T19:58:09.291Z,19.98
2023-01-20T20:01:32.344Z,19.70
2023-01-20T20:04:39.687Z,17.50
2023-01-20T20:07:50.223Z,20.27
2023-01-20T20:10:59.013Z,17.07
2023-01-20T20:14:06.329Z,19.52
2023-01-20T20:17:13.395Z,19.87
2023-01-20T20:20:21.926Z,18.48
2023-01-20T20:23:27.858Z,19.48
2023-01-20T20:26:37.934Z,17.27
2023-01-20T20:29:44.879Z,18.12
2023-01-20T20:32:51.419Z,18.20
2023-01-20T20:35:59.162Z,17.60
2023-01-20T20:39:06.415Z,17.12
2023-01-20T20:42:12.162Z,18.00
2023-01-20T20:45:19.139Z,17.82
2023-01-20T20:48:24.606Z,17.12
2023-01-20T20:51:35.031Z,18.10
2023-01-20T20:54:44.102Z,18.55
2023-01-20T20:57:51.558Z,18.77
2023-01-20T21:00:58.839Z,18.92
2023-01-20T21:04:04.420Z,18.37
2023-01-20T21:07:11.705Z,19.23
2023-01-20T21:10:19.090Z,19.98
2023-01-20T21:13:25.715Z,18.77
2023-01-20T21:16:32.951Z,18.17
2023-01-20T21:19:41.399Z,18.55
2023-01-20T21:22:47.983Z,19.40
2023-01-20T21:25:53.892Z,19.15
2023-01-20T21:29:02.162Z,17.90
2023-01-20T21:32:08.134Z,18.07
2023-01-20T21:35:14.592Z,17.70
2023-01-20T21:38:21.987Z,18.05
2023-01-20T21:41:28.994Z,19.32
2023-01-20T21:44:37.348Z,17.55
2023-01-20T21:47:43.171Z,18.20
2023-01-20T21:51:07.361Z,17.12
2023-01-20T21:54:14.010Z,16.05
2023-01-20T21:57:20.261Z,18.07
2023-01-20T22:00:28.309Z,17.65
2023-01-20T22:03:34.460Z,17.02
2023-01-20T22:06:40.107Z,17.20
2023-01-20T22:09:47.417Z,15.88
2023-01-20T22:12:59.304Z,16.85
2023-01-20T22:16:06.745Z,17.37
2023-01-20T22:19:13.723Z,15.72
2023-01-20T22:22:19.552Z,16.23
2023-01-20T22:25:27.189Z,16.90
2023-01-20T22:28:34.156Z,16.02
2023-01-20T22:31:41.070Z,16.55
2023-01-20T22:34:50.253Z,15.88
2023-01-20T22:37:55.619Z,16.35
2023-01-20T22:41:01.191Z,16.32
2023-01-20T22:44:07.253Z,17.00
2023-01-20T22:47:15.906Z,15.72
2023-01-20T22:50:22.776Z,16.15
2023-01-20T22:53:28.908Z,16.15
2023-01-20T22:56:38.025Z,15.83
2023-01-20T22:59:44.733Z,16.10
2023-01-20T23:02:51.726Z,16.12
2023-01-20T23:06:06.403Z,16.82
2023-01-20T23:09:21.692Z,16.95
2023-01-20T23:12:27.419Z,15.30
2023-01-20T23:15:34.104Z,15.03
2023-01-20T23:18:39.905Z,14.25
2023-01-20T23:21:47.029Z,14.75
2023-01-20T23:24:52.834Z,14.70
2023-01-20T23:27:59.572Z,15.35
2023-01-20T23:31:05.407Z,14.83
2023-01-20T23:34:11.659Z,14.43
2023-01-20T23:37:17.825Z,14.90
2023-01-20T23:40:25.849Z,15.03
2023-01-20T23:43:31.747Z,14.70
2023-01-20T23:46:36.898Z,15.25
2023-01-20T23:49:42.094Z,15.83
2023-01-20T23:52:42.222Z,15.20
2023-01-20T23:55:47.721Z,15.95
2023-01-20T23:58:54.437Z,15.32
